Time,TemperatureF,DewpointF,PressureIn,WindDirection,WindDirectionDegrees,WindSpeedMPH,WindSpeedGustMPH,Humidity,HourlyPrecipIn,Conditions,Clouds,dailyrainin,SoftwareType,DateUTC
2013-04-28 00:07:00,48.7,46.8,29.81,South,180,0.0,-999.0,93,-99.99,,,0.00,Acu-Link.com,2013-04-28 07:07:00,
2013-04-28 00:22:00,48.6,47.0,29.82,South,180,0.0,-999.0,94,-99.99,,,0.00,Acu-Link.com,2013-04-28 07:22:00,
2013-04-28 00:38:00,48.2,46.8,29.82,SSW,202,0.0,-999.0,95,-99.99,,,0.00,Acu-Link.com,2013-04-28 07:38:00,
2013-04-28 00:53:00,48.0,46.9,29.83,SSW,202,0.0,-999.0,96,-99.99,,,0.00,Acu-Link.com,2013-04-28 07:53:00,
2013-04-28 01:09:00,47.8,46.7,29.81,South,180,0.0,-999.0,96,-99.99,,,0.00,Acu-Link.com,2013-04-28 08:09:00,
2013-04-28 01:24:00,47.7,46.6,29.81,South,180,0.0,-999.0,96,-99.99,,,0.00,Acu-Link.com,2013-04-28 08:24:00,
2013-04-28 01:39:00,46.9,45.8,29.81,ENE,67,0.0,-999.0,96,-99.99,,,0.00,Acu-Link.com,2013-04-28 08:39:00,
2013-04-28 01:54:00,46.4,45.3,29.81,ESE,112,0.0,-999.0,96,-99.99,,,0.00,Acu-Link.com,2013-04-28 08:54:00,
2013-04-28 02:09:00,46.0,45.2,29.81,ENE,67,0.0,-999.0,97,-99.99,,,0.00,Acu-Link.com,2013-04-28 09:09:00,
2013-04-28 02:25:00,46.0,45.2,29.80,SW,225,0.0,-999.0,97,-99.99,,,0.00,Acu-Link.com,2013-04-28 09:25:00,
2013-04-28 02:40:00,45.7,45.2,29.80,ENE,67,0.0,-999.0,98,-99.99,,,0.00,Acu-Link.com,2013-04-28 09:40:00,
2013-04-28 02:55:00,45.7,45.2,29.80,SW,225,0.0,-999.0,98,-99.99,,,0.00,Acu-Link.com,2013-04-28 09:55:00,
2013-04-28 03:10:00,45.7,45.4,29.80,NE,45,0.0,-999.0,99,-99.99,,,0.00,Acu-Link.com,2013-04-28 10:10:00,
2013-04-28 03:26:00,45.3,45.0,29.79,NE,45,0.0,-999.0,99,-99.99,,,0.00,Acu-Link.com,2013-04-28 10:26:00,
2013-04-28 03:41:00,45.5,45.2,29.80,ESE,112,0.0,-999.0,99,-99.99,,,0.00,Acu-Link.com,2013-04-28 10:41:00,
2013-04-28 03:56:00,45.0,44.7,29.80,East,90,0.0,-999.0,99,-99.99,,,0.00,Acu-Link.com,2013-04-28 10:56:00,
2013-04-28 04:11:00,44.8,44.5,29.80,NE,45,0.0,-999.0,99,-99.99,,,0.00,Acu-Link.com,2013-04-28 11:11:00,
2013-04-28 04:26:00,45.0,44.7,29.79,South,180,0.0,-999.0,99,-99.99,,,0.00,Acu-Link.com,2013-04-28 11:26:00,
2013-04-28 04:42:00,44.4,44.1,29.79,ENE,67,0.0,-999.0,99,-99.99,,,0.00,Acu-Link.com,2013-04-28 11:42:00,
2013-04-28 04:57:00,44.4,44.1,29.79,North,0,0.0,-999.0,99,-99.99,,,0.00,Acu-Link.com,2013-04-28 11:57:00,
2013-04-28 05:12:00,44.4,44.1,29.79,SW,225,0.0,-999.0,99,-99.99,,,0.00,Acu-Link.com,2013-04-28 12:12:00,
2013-04-28 05:27:00,44.2,43.9,29.79,SSW,202,0.0,-999.0,99,-99.99,,,0.00,Acu-Link.com,2013-04-28 12:27:00,
2013-04-28 05:42:00,44.8,44.5,29.79,South,180,0.0,-999.0,99,-99.99,,,0.00,Acu-Link.com,2013-04-28 12:42:00,
2013-04-28 05:58:00,45.0,44.7,29.79,SE,135,0.0,-999.0,99,-99.99,,,0.00,Acu-Link.com,2013-04-28 12:58:00,
2013-04-28 06:13:00,44.8,44.5,29.80,ESE,112,0.0,-999.0,99,-99.99,,,0.00,Acu-Link.com,2013-04-28 13:13:00,
2013-04-28 06:28:00,44.4,44.1,29.80,NE,45,0.0,-999.0,99,-99.99,,,0.00,Acu-Link.com,2013-04-28 13:28:00,
2013-04-28 06:43:00,44.2,43.9,29.80,South,180,0.0,-999.0,99,-99.99,,,0.00,Acu-Link.com,2013-04-28 13:43:00,
2013-04-28 06:58:00,44.2,43.9,29.80,ESE,112,0.0,-999.0,99,-99.99,,,0.00,Acu-Link.com,2013-04-28 13:58:00,
2013-04-28 07:14:00,44.6,44.3,29.80,WNW,292,0.0,-999.0,99,-99.99,,,0.00,Acu-Link.com,2013-04-28 14:14:00,
2013-04-28 07:29:00,45.1,44.8,29.80,NW,315,0.0,-999.0,99,-99.99,,,0.00,Acu-Link.com,2013-04-28 14:29:00,
2013-04-28 07:44:00,45.9,45.6,29.80,SW,225,0.0,-999.0,99,-99.99,,,0.00,Acu-Link.com,2013-04-28 14:44:00,
2013-04-28 07:59:00,46.6,46.3,29.81,SW,225,0.0,-999.0,99,-99.99,,,0.00,Acu-Link.com,2013-04-28 14:59:00,
2013-04-28 08:15:00,47.7,47.4,29.82,South,180,0.0,-999.0,99,-99.99,,,0.00,Acu-Link.com,2013-04-28 15:15:00,
2013-04-28 08:30:00,48.7,48.4,29.81,NE,45,0.0,-999.0,99,-99.99,,,0.00,Acu-Link.com,2013-04-28 15:30:00,
2013-04-28 09:00:00,52.5,49.0,29.81,West,270,0.0,-999.0,88,-99.99,,,0.00,Acu-Link.com,2013-04-28 16:00:00,
2013-04-28 09:15:00,54.3,49.9,29.80,SW,225,0.0,-999.0,85,-99.99,,,0.00,Acu-Link.com,2013-04-28 16:15:00,
2013-04-28 09:31:00,55.9,50.2,29.81,SW,225,0.0,-999.0,81,-99.99,,,0.00,Acu-Link.com,2013-04-28 16:31:00,
2013-04-28 09:46:00,57.2,50.7,29.80,NW,315,1.7,-999.0,79,-99.99,,,0.00,Acu-Link.com,2013-04-28 16:46:00,
2013-04-28 10:01:00,59.5,51.2,29.80,ESE,112,1.1,-999.0,74,-99.99,,,0.00,Acu-Link.com,2013-04-28 17:01:00,
2013-04-28 10:16:00,60.6,51.9,29.80,West,270,1.1,-999.0,73,-99.99,,,0.00,Acu-Link.com,2013-04-28 17:16:00,
2013-04-28 10:31:00,63.1,52.8,29.81,WNW,292,2.2,-999.0,69,-99.99,,,0.00,Acu-Link.com,2013-04-28 17:31:00,
2013-04-28 10:47:00,64.6,52.6,29.81,NNE,22,0.0,-999.0,65,-99.99,,,0.00,Acu-Link.com,2013-04-28 17:47:00,
2013-04-28 11:02:00,65.5,53.0,29.80,North,0,2.2,-999.0,64,-99.99,,,0.00,Acu-Link.com,2013-04-28 18:02:00,
2013-04-28 11:17:00,66.9,53.0,29.80,NNW,337,2.2,-999.0,61,-99.99,,,0.00,Acu-Link.com,2013-04-28 18:17:00,
2013-04-28 11:32:00,67.8,52.9,29.79,SW,225,1.1,-999.0,59,-99.99,,,0.00,Acu-Link.com,2013-04-28 18:32:00,
2013-04-28 11:47:00,69.4,53.5,29.79,SSW,202,0.0,-999.0,57,-99.99,,,0.00,Acu-Link.com,2013-04-28 18:47:00,
2013-04-28 12:03:00,71.2,53.7,29.78,West,270,1.7,-999.0,54,-99.99,,,0.00,Acu-Link.com,2013-04-28 19:03:00,
2013-04-28 12:18:00,73.6,54.9,29.77,NE,45,0.0,-999.0,52,-99.99,,,0.00,Acu-Link.com,2013-04-28 19:18:00,
2013-04-28 12:33:00,74.7,54.8,29.78,North,0,2.2,-999.0,50,-99.99,,,0.00,Acu-Link.com,2013-04-28 19:33:00,
2013-04-28 12:48:00,74.5,54.6,29.76,North,0,3.2,-999.0,50,-99.99,,,0.00,Acu-Link.com,2013-04-28 19:48:00,
2013-04-28 13:03:00,76.1,55.0,29.76,WNW,292,1.7,-999.0,48,-99.99,,,0.00,Acu-Link.com,2013-04-28 20:03:00,
2013-04-28 13:19:00,74.8,53.8,29.75,NE,45,0.0,-999.0,48,-99.99,,,0.00,Acu-Link.com,2013-04-28 20:19:00,
2013-04-28 13:34:00,75.7,53.4,29.75,NE,45,2.7,-999.0,46,-99.99,,,0.00,Acu-Link.com,2013-04-28 20:34:00,
2013-04-28 13:49:00,77.0,54.0,29.75,ENE,67,2.2,-999.0,45,-99.99,,,0.00,Acu-Link.com,2013-04-28 20:49:00,
2013-04-28 14:04:00,78.4,55.3,29.73,NE,45,4.2,-999.0,45,-99.99,,,0.00,Acu-Link.com,2013-04-28 21:04:00,
2013-04-28 14:19:00,79.0,54.6,29.73,NE,45,2.7,-999.0,43,-99.99,,,0.00,Acu-Link.com,2013-04-28 21:19:00,
2013-04-28 14:35:00,79.7,55.2,29.71,SSE,157,1.7,-999.0,43,-99.99,,,0.00,Acu-Link.com,2013-04-28 21:35:00,
2013-04-28 14:50:00,80.1,55.6,29.71,NNE,22,3.2,-999.0,43,-99.99,,,0.00,Acu-Link.com,2013-04-28 21:50:00,
2013-04-28 15:05:00,80.1,55.6,29.70,NE,45,1.7,-999.0,43,-99.99,,,0.00,Acu-Link.com,2013-04-28 22:05:00,
2013-04-28 15:20:00,81.9,55.9,29.69,ESE,112,0.0,-999.0,41,-99.99,,,0.00,Acu-Link.com,2013-04-28 22:20:00,
2013-04-28 15:36:00,79.9,55.4,29.68,NE,45,0.0,-999.0,43,-99.99,,,0.00,Acu-Link.com,2013-04-28 22:36:00,
2013-04-28 15:51:00,81.3,56.0,29.67,ENE,67,2.7,-999.0,42,-99.99,,,0.00,Acu-Link.com,2013-04-28 22:51:00,
2013-04-28 16:06:00,81.9,55.9,29.66,ENE,67,2.7,-999.0,41,-99.99,,,0.00,Acu-Link.com,2013-04-28 23:06:00,
2013-04-28 16:21:00,82.6,56.5,29.66,NE,45,2.2,-999.0,41,-99.99,,,0.00,Acu-Link.com,2013-04-28 23:21:00,
2013-04-28 16:36:00,84.0,57.7,29.64,East,90,2.2,-999.0,41,-99.99,,,0.00,Acu-Link.com,2013-04-28 23:36:00,
2013-04-28 16:52:00,82.9,56.8,29.63,NE,45,2.7,-999.0,41,-99.99,,,0.00,Acu-Link.com,2013-04-28 23:52:00,
2013-04-28 17:07:00,80.4,55.8,29.63,ENE,67,2.7,-999.0,43,-99.99,,,0.00,Acu-Link.com,2013-04-29 00:07:00,
2013-04-28 17:22:00,81.7,57.0,29.63,NNE,22,2.2,-999.0,43,-99.99,,,0.00,Acu-Link.com,2013-04-29 00:22:00,
2013-04-28 17:37:00,82.6,56.5,29.63,NE,45,0.0,-999.0,41,-99.99,,,0.00,Acu-Link.com,2013-04-29 00:37:00,
2013-04-28 17:52:00,81.7,57.0,29.63,NNE,22,2.7,-999.0,43,-99.99,,,0.00,Acu-Link.com,2013-04-29 00:52:00,
2013-04-28 18:08:00,82.6,57.2,29.63,ENE,67,2.2,-999.0,42,-99.99,,,0.00,Acu-Link.com,2013-04-29 01:08:00,
2013-04-28 18:23:00,85.8,57.9,29.62,NNE,22,1.7,-999.0,39,-99.99,,,0.00,Acu-Link.com,2013-04-29 01:23:00,
2013-04-28 18:38:00,84.7,56.3,29.62,SSW,202,1.1,-999.0,38,-99.99,,,0.00,Acu-Link.com,2013-04-29 01:38:00,
2013-04-28 18:53:00,82.2,54.0,29.61,NNE,22,2.7,-999.0,38,-99.99,,,0.00,Acu-Link.com,2013-04-29 01:53:00,
2013-04-28 19:08:00,81.7,52.1,29.60,WNW,292,3.7,-999.0,36,-99.99,,,0.00,Acu-Link.com,2013-04-29 02:08:00,
2013-04-28 19:24:00,80.6,51.9,29.61,NNE,22,1.7,-999.0,37,-99.99,,,0.00,Acu-Link.com,2013-04-29 02:24:00,
2013-04-28 19:39:00,79.5,52.4,29.60,West,270,0.0,-999.0,39,-99.99,,,0.00,Acu-Link.com,2013-04-29 02:39:00,
2013-04-28 19:54:00,77.2,51.0,29.60,SSW,202,0.0,-999.0,40,-99.99,,,0.00,Acu-Link.com,2013-04-29 02:54:00,
2013-04-28 20:09:00,74.3,52.2,29.60,SSW,202,0.0,-999.0,46,-99.99,,,0.00,Acu-Link.com,2013-04-29 03:09:00,
2013-04-28 20:25:00,72.3,53.7,29.61,ESE,112,0.0,-999.0,52,-99.99,,,0.00,Acu-Link.com,2013-04-29 03:25:00,
2013-04-28 20:40:00,69.1,54.2,29.61,NE,45,0.0,-999.0,59,-99.99,,,0.00,Acu-Link.com,2013-04-29 03:40:00,
2013-04-28 20:55:00,68.2,54.2,29.60,SSW,202,0.0,-999.0,61,-99.99,,,0.00,Acu-Link.com,2013-04-29 03:55:00,
2013-04-28 21:10:00,66.7,55.0,29.61,ENE,67,0.0,-999.0,66,-99.99,,,0.00,Acu-Link.com,2013-04-29 04:10:00,
2013-04-28 21:25:00,65.3,54.5,29.61,East,90,0.0,-999.0,68,-99.99,,,0.00,Acu-Link.com,2013-04-29 04:25:00,
2013-04-28 21:41:00,64.4,54.0,29.62,ENE,67,0.0,-999.0,69,-99.99,,,0.00,Acu-Link.com,2013-04-29 04:41:00,
2013-04-28 21:56:00,63.7,54.5,29.61,ENE,67,0.0,-999.0,72,-99.99,,,0.00,Acu-Link.com,2013-04-29 04:56:00,
2013-04-28 22:11:00,63.1,54.3,29.62,East,90,0.0,-999.0,73,-99.99,,,0.00,Acu-Link.com,2013-04-29 05:11:00,
2013-04-28 22:26:00,62.4,55.1,29.62,ENE,67,0.0,-999.0,77,-99.99,,,0.00,Acu-Link.com,2013-04-29 05:26:00,
2013-04-28 22:41:00,62.4,54.7,29.62,NE,45,0.0,-999.0,76,-99.99,,,0.00,Acu-Link.com,2013-04-29 05:41:00,
2013-04-28 22:57:00,61.7,55.5,29.63,ENE,67,0.0,-999.0,80,-99.99,,,0.00,Acu-Link.com,2013-04-29 05:57:00,
2013-04-28 23:12:00,61.2,55.0,29.62,ESE,112,0.0,-999.0,80,-99.99,,,0.00,Acu-Link.com,2013-04-29 06:12:00,
2013-04-28 23:27:00,60.8,55.6,29.62,SW,225,0.0,-999.0,83,-99.99,,,0.00,Acu-Link.com,2013-04-29 06:27:00,
2013-04-28 23:42:00,60.1,54.9,29.61,NNW,337,0.0,-999.0,83,-99.99,,,0.00,Acu-Link.com,2013-04-29 06:42:00,
2013-04-28 23:57:00,59.4,54.9,29.62,NE,45,0.0,-999.0,85,-99.99,,,0.00,Acu-Link.com,2013-04-29 06:57:00,